sensor_id;sensor_type;location;lat;lon;timestamp;pressure;altitude;pressure_sealevel;temperature;humidity
50282;BME280;36176;51.506;10.272;2024-02-26T01:10:39;97970.28;;;2.32;95.35
50282;BME280;36176;51.506;10.272;2024-02-26T01:13:37;97976.78;;;2.45;94.27
50282;BME280;36176;51.506;10.272;2024-02-26T01:16:35;97972.25;;;2.49;93.31
50282;BME280;36176;51.506;10.272;2024-02-26T01:19:10;97975.31;;;2.60;93.04
50282;BME280;36176;51.506;10.272;2024-02-26T01:21:56;97965.13;;;2.76;92.32
50282;BME280;36176;51.506;10.272;2024-02-26T01:24:54;97976.06;;;2.86;91.46
50282;BME280;36176;51.506;10.272;2024-02-26T01:27:35;97965.25;;;2.95;90.83
50282;BME280;36176;51.506;10.272;2024-02-26T01:30:39;97965.06;;;3.00;89.78
50282;BME280;36176;51.506;10.272;2024-02-26T01:33:45;97963.50;;;3.16;89.20
50282;BME280;36176;51.506;10.272;2024-02-26T01:36:34;97953.81;;;3.18;88.80
50282;BME280;36176;51.506;10.272;2024-02-26T01:39:13;97956.31;;;3.21;88.53
50282;BME280;36176;51.506;10.272;2024-02-26T01:42:03;97946.56;;;3.25;88.16
50282;BME280;36176;51.506;10.272;2024-02-26T02:34:41;97950.44;;;3.36;86.75
50282;BME280;36176;51.506;10.272;2024-02-26T02:37:17;97952.13;;;3.37;86.57
50282;BME280;36176;51.506;10.272;2024-02-26T02:39:59;97948.75;;;3.35;86.54
50282;BME280;36176;51.506;10.272;2024-02-26T02:42:49;97960.84;;;3.38;86.07
50282;BME280;36176;51.506;10.272;2024-02-26T02:45:41;97956.28;;;3.43;86.33
50282;BME280;36176;51.506;10.272;2024-02-26T02:52:07;97951.88;;;3.44;85.92
50282;BME280;36176;51.506;10.272;2024-02-26T02:54:51;97951.63;;;3.50;85.61
50282;BME280;36176;51.506;10.272;2024-02-26T02:57:26;97945.97;;;3.59;85.50
50282;BME280;36176;51.506;10.272;2024-02-26T02:59:57;97936.81;;;3.69;84.86
50282;BME280;36176;51.506;10.272;2024-02-26T03:02:24;97944.72;;;3.68;84.65
50282;BME280;36176;51.506;10.272;2024-02-26T03:04:52;97943.03;;;3.67;84.74
50282;BME280;36176;51.506;10.272;2024-02-26T03:07:25;97943.94;;;3.66;83.98
50282;BME280;36176;51.506;10.272;2024-02-26T03:09:58;97945.31;;;3.74;84.03
50282;BME280;36176;51.506;10.272;2024-02-26T03:12:26;97952.97;;;3.79;83.53
50282;BME280;36176;51.506;10.272;2024-02-26T03:14:57;97950.22;;;3.82;83.31
50282;BME280;36176;51.506;10.272;2024-02-26T03:17:35;97953.56;;;3.86;83.70
50282;BME280;36176;51.506;10.272;2024-02-26T03:20:04;97960.56;;;3.85;84.08
50282;BME280;36176;51.506;10.272;2024-02-26T03:23:03;97957.09;;;3.84;83.62
50282;BME280;36176;51.506;10.272;2024-02-26T03:26:03;97952.91;;;3.80;83.74
50282;BME280;36176;51.506;10.272;2024-02-26T03:28:56;97950.41;;;3.77;84.57
50282;BME280;36176;51.506;10.272;2024-02-26T03:31:54;97955.59;;;3.79;84.41
50282;BME280;36176;51.506;10.272;2024-02-26T03:35:05;97954.66;;;3.80;84.48
50282;BME280;36176;51.506;10.272;2024-02-26T03:38:32;97953.56;;;3.86;84.11
50282;BME280;36176;51.506;10.272;2024-02-26T03:41:22;97954.22;;;3.91;84.23
50282;BME280;36176;51.506;10.272;2024-02-26T03:48:25;97950.84;;;4.08;83.39
50282;BME280;36176;51.506;10.272;2024-02-26T04:55:27;97974.00;;;4.74;87.07
50282;BME280;36176;51.506;10.272;2024-02-26T04:57:57;97976.63;;;4.74;87.66
50282;BME280;36176;51.506;10.272;2024-02-26T05:00:25;97975.72;;;4.75;88.13
50282;BME280;36176;51.506;10.272;2024-02-26T05:02:52;97981.81;;;4.75;87.78
50282;BME280;36176;51.506;10.272;2024-02-26T05:05:19;97988.81;;;4.75;87.68
50282;BME280;36176;51.506;10.272;2024-02-26T05:07:47;97980.13;;;4.74;88.10
50282;BME280;36176;51.506;10.272;2024-02-26T05:10:14;97981.84;;;4.74;88.01
50282;BME280;36176;51.506;10.272;2024-02-26T05:12:41;97984.47;;;4.74;88.48
50282;BME280;36176;51.506;10.272;2024-02-26T05:15:09;97985.47;;;4.71;88.21
50282;BME280;36176;51.506;10.272;2024-02-26T05:17:36;97975.06;;;4.69;88.10
50282;BME280;36176;51.506;10.272;2024-02-26T05:20:04;97977.75;;;4.68;88.38
50282;BME280;36176;51.506;10.272;2024-02-26T05:22:31;97975.97;;;4.68;88.81
50282;BME280;36176;51.506;10.272;2024-02-26T05:24:58;97976.81;;;4.69;88.32
50282;BME280;36176;51.506;10.272;2024-02-26T05:27:26;97975.81;;;4.72;88.56
50282;BME280;36176;51.506;10.272;2024-02-26T05:29:56;97982.84;;;4.71;88.55
50282;BME280;36176;51.506;10.272;2024-02-26T05:32:23;97983.69;;;4.72;88.86
50282;BME280;36176;51.506;10.272;2024-02-26T05:34:51;97989.72;;;4.74;88.66
50282;BME280;36176;51.506;10.272;2024-02-26T05:37:18;97995.75;;;4.76;88.59
50282;BME280;36176;51.506;10.272;2024-02-26T05:39:45;97993.13;;;4.76;88.56
50282;BME280;36176;51.506;10.272;2024-02-26T05:42:14;97997.38;;;4.78;88.32
50282;BME280;36176;51.506;10.272;2024-02-26T05:44:41;98004.41;;;4.78;88.50
50282;BME280;36176;51.506;10.272;2024-02-26T05:47:08;98008.09;;;4.74;88.54
50282;BME280;36176;51.506;10.272;2024-02-26T05:49:35;97983.84;;;4.68;88.64
50282;BME280;36176;51.506;10.272;2024-02-26T05:52:05;97975.81;;;4.72;88.59
50282;BME280;36176;51.506;10.272;2024-02-26T05:54:34;97979.13;;;4.77;88.15
50282;BME280;36176;51.506;10.272;2024-02-26T05:57:01;97981.44;;;4.83;87.62
50282;BME280;36176;51.506;10.272;2024-02-26T05:59:33;98002.28;;;4.86;87.27
50282;BME280;36176;51.506;10.272;2024-02-26T06:02:00;98018.69;;;4.91;87.38
50282;BME280;36176;51.506;10.272;2024-02-26T06:04:27;98027.41;;;4.92;86.69
50282;BME280;36176;51.506;10.272;2024-02-26T06:06:55;98030.66;;;4.97;86.83
50282;BME280;36176;51.506;10.272;2024-02-26T06:09:23;98035.69;;;5.01;86.73
50282;BME280;36176;51.506;10.272;2024-02-26T06:11:50;98042.34;;;5.08;86.55
50282;BME280;36176;51.506;10.272;2024-02-26T06:14:18;98045.75;;;5.10;86.20
50282;BME280;36176;51.506;10.272;2024-02-26T06:16:46;98050.16;;;5.10;86.35
50282;BME280;36176;51.506;10.272;2024-02-26T06:19:13;98036.94;;;5.11;85.88
50282;BME280;36176;51.506;10.272;2024-02-26T06:21:40;98028.22;;;5.11;85.80
50282;BME280;36176;51.506;10.272;2024-02-26T06:24:07;98026.28;;;5.15;85.59
50282;BME280;36176;51.506;10.272;2024-02-26T06:26:38;98015.78;;;5.15;85.58
50282;BME280;36176;51.506;10.272;2024-02-26T06:29:05;98019.19;;;5.17;85.21
50282;BME280;36176;51.506;10.272;2024-02-26T06:31:32;98014.72;;;5.19;85.21
50282;BME280;36176;51.506;10.272;2024-02-26T06:33:59;98022.44;;;5.22;84.23
50282;BME280;36176;51.506;10.272;2024-02-26T06:36:26;98030.19;;;5.25;84.10
50282;BME280;36176;51.506;10.272;2024-02-26T06:38:54;98042.09;;;5.32;83.56
50282;BME280;36176;51.506;10.272;2024-02-26T06:41:21;98041.78;;;5.38;83.08
50282;BME280;36176;51.506;10.272;2024-02-26T06:43:49;98043.25;;;5.44;82.87
50282;BME280;36176;51.506;10.272;2024-02-26T06:46:17;98047.53;;;5.46;82.55
50282;BME280;36176;51.506;10.272;2024-02-26T06:48:44;98054.41;;;5.49;82.10
50282;BME280;36176;51.506;10.272;2024-02-26T06:51:11;98050.81;;;5.50;82.63
50282;BME280;36176;51.506;10.272;2024-02-26T06:53:38;98041.94;;;5.52;82.28
50282;BME280;36176;51.506;10.272;2024-02-26T06:56:05;98023.56;;;5.52;81.84
50282;BME280;36176;51.506;10.272;2024-02-26T06:58:35;98034.00;;;5.54;80.72
50282;BME280;36176;51.506;10.272;2024-02-26T07:01:02;98037.31;;;5.58;80.53
50282;BME280;36176;51.506;10.272;2024-02-26T07:03:30;98038.88;;;5.62;80.91
50282;BME280;36176;51.506;10.272;2024-02-26T07:05:57;98040.41;;;5.66;81.28
50282;BME280;36176;51.506;10.272;2024-02-26T07:08:27;98039.47;;;5.67;80.99
50282;BME280;36176;51.506;10.272;2024-02-26T07:10:54;98035.78;;;5.71;80.94
50282;BME280;36176;51.506;10.272;2024-02-26T07:13:21;98040.97;;;5.72;81.20
50282;BME280;36176;51.506;10.272;2024-02-26T07:15:48;98045.28;;;5.73;80.32
50282;BME280;36176;51.506;10.272;2024-02-26T07:18:15;98048.63;;;5.77;80.62
50282;BME280;36176;51.506;10.272;2024-02-26T07:20:43;98048.53;;;5.79;79.87
50282;BME280;36176;51.506;10.272;2024-02-26T07:23:10;98060.53;;;5.84;79.89
50282;BME280;36176;51.506;10.272;2024-02-26T07:25:40;98069.81;;;5.91;80.07
50282;BME280;36176;51.506;10.272;2024-02-26T07:28:14;98081.81;;;5.97;79.74
50282;BME280;36176;51.506;10.272;2024-02-26T07:30:41;98086.84;;;6.02;78.72
50282;BME280;36176;51.506;10.272;2024-02-26T07:33:09;98085.59;;;6.09;78.58
50282;BME280;36176;51.506;10.272;2024-02-26T07:35:36;98073.13;;;6.12;78.09
50282;BME280;36176;51.506;10.272;2024-02-26T07:38:04;98064.22;;;6.15;77.58
50282;BME280;36176;51.506;10.272;2024-02-26T07:40:31;98067.47;;;6.20;77.22
50282;BME280;36176;51.506;10.272;2024-02-26T07:42:58;98067.22;;;6.25;77.39
50282;BME280;36176;51.506;10.272;2024-02-26T07:45:26;98059.03;;;6.31;76.68
50282;BME280;36176;51.506;10.272;2024-02-26T07:47:54;98058.88;;;6.34;76.88
50282;BME280;36176;51.506;10.272;2024-02-26T07:50:21;98050.66;;;6.40;76.34
50282;BME280;36176;51.506;10.272;2024-02-26T07:52:48;98046.06;;;6.44;76.50
50282;BME280;36176;51.506;10.272;2024-02-26T07:55:15;98051.94;;;6.49;76.15
50282;BME280;36176;51.506;10.272;2024-02-26T07:57:43;98054.31;;;6.53;75.73
50282;BME280;36176;51.506;10.272;2024-02-26T08:00:10;98061.19;;;6.56;76.06
50282;BME280;36176;51.506;10.272;2024-02-26T08:02:38;98065.31;;;6.62;75.43
50282;BME280;36176;51.506;10.272;2024-02-26T08:05:05;98065.97;;;6.65;75.57
50282;BME280;36176;51.506;10.272;2024-02-26T08:07:32;98077.88;;;6.72;75.70
50282;BME280;36176;51.506;10.272;2024-02-26T08:09:59;98075.94;;;6.76;75.06
50282;BME280;36176;51.506;10.272;2024-02-26T08:12:27;98080.13;;;6.80;74.69
50282;BME280;36176;51.506;10.272;2024-02-26T08:14:54;98080.88;;;6.82;75.04
50282;BME280;36176;51.506;10.272;2024-02-26T08:17:21;98083.44;;;6.84;74.52
50282;BME280;36176;51.506;10.272;2024-02-26T08:19:48;98095.75;;;6.83;74.33
50282;BME280;36176;51.506;10.272;2024-02-26T08:22:15;98100.91;;;6.85;74.58
50282;BME280;36176;51.506;10.272;2024-02-26T08:24:42;98097.53;;;6.82;74.28
50282;BME280;36176;51.506;10.272;2024-02-26T08:27:09;98106.19;;;6.85;74.87
50282;BME280;36176;51.506;10.272;2024-02-26T08:29:36;98107.81;;;6.87;74.91
50282;BME280;36176;51.506;10.272;2024-02-26T08:32:04;98113.81;;;6.89;75.04
50282;BME280;36176;51.506;10.272;2024-02-26T08:34:33;98110.94;;;6.94;75.74
50282;BME280;36176;51.506;10.272;2024-02-26T08:37:03;98107.28;;;6.96;75.61
50282;BME280;36176;51.506;10.272;2024-02-26T08:39:33;98109.69;;;7.01;75.77
50282;BME280;36176;51.506;10.272;2024-02-26T08:42:00;98112.41;;;6.99;75.61
50282;BME280;36176;51.506;10.272;2024-02-26T08:44:27;98105.78;;;6.92;75.74
50282;BME280;36176;51.506;10.272;2024-02-26T08:46:54;98106.88;;;6.88;76.14
50282;BME280;36176;51.506;10.272;2024-02-26T08:49:21;98107.97;;;6.84;76.56
50282;BME280;36176;51.506;10.272;2024-02-26T08:51:49;98118.66;;;6.81;76.53
50282;BME280;36176;51.506;10.272;2024-02-26T08:54:16;98107.13;;;6.84;76.83
50282;BME280;36176;51.506;10.272;2024-02-26T08:56:43;98109.56;;;6.87;76.33
50282;BME280;36176;51.506;10.272;2024-02-26T08:59:10;98105.25;;;6.86;76.77
50282;BME280;36176;51.506;10.272;2024-02-26T09:01:38;98107.72;;;6.89;76.84
50282;BME280;36176;51.506;10.272;2024-02-26T09:04:07;98100.53;;;6.92;77.03
50282;BME280;36176;51.506;10.272;2024-02-26T09:06:35;98113.25;;;7.00;76.94
50282;BME280;36176;51.506;10.272;2024-02-26T09:09:02;98113.78;;;7.07;76.59
50282;BME280;36176;51.506;10.272;2024-02-26T09:11:29;98110.13;;;7.09;76.32
50282;BME280;36176;51.506;10.272;2024-02-26T09:13:56;98110.63;;;7.16;76.49
50282;BME280;36176;51.506;10.272;2024-02-26T09:16:24;98105.09;;;7.20;76.54
50282;BME280;36176;51.506;10.272;2024-02-26T09:18:51;98111.47;;;7.32;76.28
50282;BME280;36176;51.506;10.272;2024-02-26T09:21:19;98102.41;;;7.38;76.65
50282;BME280;36176;51.506;10.272;2024-02-26T09:23:49;98112.75;;;7.41;76.19
50282;BME280;36176;51.506;10.272;2024-02-26T09:26:17;98113.09;;;7.51;77.01
50282;BME280;36176;51.506;10.272;2024-02-26T09:28:46;98111.75;;;7.59;76.80
50282;BME280;36176;51.506;10.272;2024-02-26T09:31:17;98111.38;;;7.65;76.47
50282;BME280;36176;51.506;10.272;2024-02-26T09:33:44;98107.81;;;7.66;76.15
50282;BME280;36176;51.506;10.272;2024-02-26T09:36:12;98114.97;;;7.64;76.08
50282;BME280;36176;51.506;10.272;2024-02-26T09:38:42;98113.25;;;7.63;77.01
50282;BME280;36176;51.506;10.272;2024-02-26T09:41:22;98117.34;;;7.69;77.07
50282;BME280;36176;51.506;10.272;2024-02-26T09:43:52;98115.34;;;7.73;76.31
50282;BME280;36176;51.506;10.272;2024-02-26T09:46:23;98122.94;;;7.79;76.70
50282;BME280;36176;51.506;10.272;2024-02-26T09:48:52;98121.81;;;7.83;76.15
50282;BME280;36176;51.506;10.272;2024-02-26T09:51:22;98121.72;;;7.84;76.42
50282;BME280;36176;51.506;10.272;2024-02-26T09:53:51;98117.59;;;7.95;76.34
50282;BME280;36176;51.506;10.272;2024-02-26T09:56:19;98118.38;;;7.97;75.65
50282;BME280;36176;51.506;10.272;2024-02-26T09:58:52;98122.34;;;8.04;75.75
50282;BME280;36176;51.506;10.272;2024-02-26T10:01:20;98120.84;;;8.00;75.60
50282;BME280;36176;51.506;10.272;2024-02-26T10:03:52;98111.84;;;7.88;75.75
50282;BME280;36176;51.506;10.272;2024-02-26T10:06:21;98126.22;;;7.82;76.34
50282;BME280;36176;51.506;10.272;2024-02-26T10:08:49;98136.69;;;7.84;76.70
50282;BME280;36176;51.506;10.272;2024-02-26T10:11:17;98130.66;;;7.82;75.99
50282;BME280;36176;51.506;10.272;2024-02-26T10:13:45;98127.75;;;7.86;77.13
50282;BME280;36176;51.506;10.272;2024-02-26T10:16:12;98137.34;;;7.87;76.27
50282;BME280;36176;51.506;10.272;2024-02-26T10:18:49;98138.56;;;7.82;77.00
50282;BME280;36176;51.506;10.272;2024-02-26T10:21:26;98143.50;;;7.88;76.65
50282;BME280;36176;51.506;10.272;2024-02-26T10:23:53;98133.88;;;7.87;76.48
50282;BME280;36176;51.506;10.272;2024-02-26T10:37:55;98141.72;;;8.49;75.88
50282;BME280;36176;51.506;10.272;2024-02-26T10:40:23;98141.44;;;8.54;75.09
50282;BME280;36176;51.506;10.272;2024-02-26T10:42:50;98150.78;;;8.59;75.85
50282;BME280;36176;51.506;10.272;2024-02-26T10:45:17;98150.50;;;8.64;75.42
50282;BME280;36176;51.506;10.272;2024-02-26T10:47:45;98153.13;;;8.64;75.48
50282;BME280;36176;51.506;10.272;2024-02-26T10:50:13;98152.38;;;8.62;74.74
50282;BME280;36176;51.506;10.272;2024-02-26T10:52:42;98149.31;;;8.69;75.08
50282;BME280;36176;51.506;10.272;2024-02-26T10:55:15;98140.72;;;8.80;75.15
50282;BME280;36176;51.506;10.272;2024-02-26T10:57:44;98141.56;;;8.95;75.25
50282;BME280;36176;51.506;10.272;2024-02-26T11:00:14;98154.31;;;9.17;74.60
50282;BME280;36176;51.506;10.272;2024-02-26T11:02:44;98150.97;;;9.28;72.33
50282;BME280;36176;51.506;10.272;2024-02-26T11:05:12;98153.72;;;9.26;72.73
50282;BME280;36176;51.506;10.272;2024-02-26T11:07:41;98154.09;;;9.34;72.56
50282;BME280;36176;51.506;10.272;2024-02-26T11:10:09;98155.94;;;9.47;73.11
50282;BME280;36176;51.506;10.272;2024-02-26T11:12:37;98162.47;;;9.55;71.29
50282;BME280;36176;51.506;10.272;2024-02-26T11:15:06;98160.66;;;9.56;70.98
50282;BME280;36176;51.506;10.272;2024-02-26T11:17:35;98154.81;;;9.51;72.39
50282;BME280;36176;51.506;10.272;2024-02-26T11:20:06;98161.38;;;9.72;72.50
50282;BME280;36176;51.506;10.272;2024-02-26T11:22:36;98152.53;;;9.86;71.63
50282;BME280;36176;51.506;10.272;2024-02-26T11:25:06;98159.09;;;9.93;70.33
50282;BME280;36176;51.506;10.272;2024-02-26T11:27:38;98161.13;;;9.90;71.33
50282;BME280;36176;51.506;10.272;2024-02-26T11:30:09;98163.97;;;9.87;70.34
50282;BME280;36176;51.506;10.272;2024-02-26T11:32:37;98161.81;;;9.79;71.07
50282;BME280;36176;51.506;10.272;2024-02-26T11:35:05;98162.06;;;9.89;71.11
50282;BME280;36176;51.506;10.272;2024-02-26T11:37:33;98165.56;;;9.89;70.75
50282;BME280;36176;51.506;10.272;2024-02-26T11:40:10;98163.94;;;10.01;69.79
50282;BME280;36176;51.506;10.272;2024-02-26T11:42:44;98168.84;;;9.93;69.43
50282;BME280;36176;51.506;10.272;2024-02-26T11:48:20;98170.34;;;9.97;69.71
50282;BME280;36176;51.506;10.272;2024-02-26T11:50:49;98164.91;;;9.86;70.46
50282;BME280;36176;51.506;10.272;2024-02-26T11:53:30;98163.97;;;9.87;70.37
50282;BME280;36176;51.506;10.272;2024-02-26T11:58:44;98168.34;;;9.73;71.33
50282;BME280;36176;51.506;10.272;2024-02-26T12:04:05;98164.69;;;9.62;70.54
50282;BME280;36176;51.506;10.272;2024-02-26T12:09:12;98152.72;;;9.56;71.91
50282;BME280;36176;51.506;10.272;2024-02-26T12:11:40;98156.44;;;9.80;71.66
50282;BME280;36176;51.506;10.272;2024-02-26T12:14:10;98152.66;;;9.85;70.08
50282;BME280;36176;51.506;10.272;2024-02-26T12:16:40;98158.53;;;9.75;70.24
50282;BME280;36176;51.506;10.272;2024-02-26T12:19:08;98165.41;;;9.78;70.12
50282;BME280;36176;51.506;10.272;2024-02-26T12:21:37;98154.16;;;9.74;69.75
50282;BME280;36176;51.506;10.272;2024-02-26T12:24:14;98153.25;;;9.75;69.30
50282;BME280;36176;51.506;10.272;2024-02-26T12:26:43;98159.78;;;9.70;69.38
50282;BME280;36176;51.506;10.272;2024-02-26T12:29:10;98161.66;;;9.68;69.92
50282;BME280;36176;51.506;10.272;2024-02-26T12:31:37;98164.81;;;9.60;68.97
50282;BME280;36176;51.506;10.272;2024-02-26T12:34:06;98162.63;;;9.52;68.59
50282;BME280;36176;51.506;10.272;2024-02-26T12:36:35;98168.50;;;9.43;69.77
50282;BME280;36176;51.506;10.272;2024-02-26T12:39:02;98178.63;;;9.36;69.65
50282;BME280;36176;51.506;10.272;2024-02-26T12:41:30;98174.69;;;9.29;70.57
50282;BME280;36176;51.506;10.272;2024-02-26T12:43:57;98188.66;;;9.31;70.68
50282;BME280;36176;51.506;10.272;2024-02-26T12:46:24;98178.53;;;9.24;70.91
50282;BME280;36176;51.506;10.272;2024-02-26T12:48:51;98179.41;;;9.24;70.47
50282;BME280;36176;51.506;10.272;2024-02-26T12:51:19;98187.22;;;9.26;71.00
50282;BME280;36176;51.506;10.272;2024-02-26T12:53:46;98190.13;;;9.35;71.46
50282;BME280;36176;51.506;10.272;2024-02-26T12:56:14;98185.13;;;9.45;71.51
50282;BME280;36176;51.506;10.272;2024-02-26T12:58:41;98194.28;;;9.54;71.09
50282;BME280;36176;51.506;10.272;2024-02-26T13:01:14;98194.47;;;9.65;71.07
50282;BME280;36176;51.506;10.272;2024-02-26T13:03:42;98203.44;;;9.90;71.10
50282;BME280;36176;51.506;10.272;2024-02-26T13:06:10;98208.41;;;10.09;69.25
50282;BME280;36176;51.506;10.272;2024-02-26T13:08:38;98205.25;;;10.16;69.87
50282;BME280;36176;51.506;10.272;2024-02-26T13:11:06;98207.97;;;10.29;68.51
50282;BME280;36176;51.506;10.272;2024-02-26T13:13:33;98200.88;;;10.30;68.92
50282;BME280;36176;51.506;10.272;2024-02-26T13:16:07;98209.75;;;10.29;68.27
50282;BME280;36176;51.506;10.272;2024-02-26T13:18:35;98211.00;;;10.23;68.44
50282;BME280;36176;51.506;10.272;2024-02-26T13:21:13;98216.97;;;10.12;68.99
50282;BME280;36176;51.506;10.272;2024-02-26T13:23:41;98219.00;;;10.09;69.57
50282;BME280;36176;51.506;10.272;2024-02-26T13:26:12;98211.06;;;10.09;69.08
50282;BME280;36176;51.506;10.272;2024-02-26T13:28:39;98207.97;;;10.15;68.72
50282;BME280;36176;51.506;10.272;2024-02-26T13:31:08;98217.94;;;10.11;68.51
50282;BME280;36176;51.506;10.272;2024-02-26T13:33:35;98218.88;;;10.10;68.91
50282;BME280;36176;51.506;10.272;2024-02-26T13:36:03;98226.81;;;10.10;68.96
50282;BME280;36176;51.506;10.272;2024-02-26T13:38:30;98230.22;;;10.12;69.21
50282;BME280;36176;51.506;10.272;2024-02-26T13:40:57;98226.63;;;10.13;69.70
50282;BME280;36176;51.506;10.272;2024-02-26T13:43:27;98226.88;;;10.23;69.79
50282;BME280;36176;51.506;10.272;2024-02-26T13:45:54;98229.81;;;10.18;69.15
50282;BME280;36176;51.506;10.272;2024-02-26T13:48:21;98230.31;;;10.11;69.16
50282;BME280;36176;51.506;10.272;2024-02-26T13:50:49;98240.38;;;10.06;69.83
50282;BME280;36176;51.506;10.272;2024-02-26T13:53:16;98242.91;;;10.07;70.27
50282;BME280;36176;51.506;10.272;2024-02-26T13:55:43;98241.47;;;10.16;69.64
50282;BME280;36176;51.506;10.272;2024-02-26T13:58:12;98251.22;;;10.15;69.02
50282;BME280;36176;51.506;10.272;2024-02-26T14:00:39;98257.72;;;10.10;69.90
50282;BME280;36176;51.506;10.272;2024-02-26T14:03:07;98265.88;;;10.07;69.26
50282;BME280;36176;51.506;10.272;2024-02-26T14:05:34;98269.81;;;10.14;69.79
50282;BME280;36176;51.506;10.272;2024-02-26T14:08:02;98270.91;;;10.24;70.23
50282;BME280;36176;51.506;10.272;2024-02-26T14:10:29;98272.47;;;10.28;69.08
50282;BME280;36176;51.506;10.272;2024-02-26T14:12:56;98281.25;;;10.29;69.43
50282;BME280;36176;51.506;10.272;2024-02-26T14:15:23;98274.41;;;10.25;69.41
50282;BME280;36176;51.506;10.272;2024-02-26T14:17:54;98276.72;;;10.16;69.07
50282;BME280;36176;51.506;10.272;2024-02-26T14:20:22;98282.50;;;10.09;69.04
50282;BME280;36176;51.506;10.272;2024-02-26T14:22:50;98285.44;;;10.04;69.83
50282;BME280;36176;51.506;10.272;2024-02-26T14:25:18;98282.13;;;10.00;69.69
50282;BME280;36176;51.506;10.272;2024-02-26T14:27:46;98284.31;;;10.08;70.30
50282;BME280;36176;51.506;10.272;2024-02-26T14:30:14;98282.97;;;10.15;68.91
50282;BME280;36176;51.506;10.272;2024-02-26T14:32:41;98287.59;;;10.12;68.55
50282;BME280;36176;51.506;10.272;2024-02-26T14:35:09;98288.63;;;10.09;68.62
50282;BME280;36176;51.506;10.272;2024-02-26T14:37:43;98273.56;;;10.24;69.88
50282;BME280;36176;51.506;10.272;2024-02-26T14:40:16;98283.53;;;10.48;69.12
50282;BME280;36176;51.506;10.272;2024-02-26T14:42:44;98281.69;;;10.62;68.46
50282;BME280;36176;51.506;10.272;2024-02-26T14:45:14;98290.81;;;10.71;67.81
50282;BME280;36176;51.506;10.272;2024-02-26T14:47:41;98292.31;;;10.75;66.80
50282;BME280;36176;51.506;10.272;2024-02-26T14:50:09;98298.09;;;10.68;66.57
50282;BME280;36176;51.506;10.272;2024-02-26T14:52:36;98296.69;;;10.49;66.00
50282;BME280;36176;51.506;10.272;2024-02-26T14:55:03;98306.28;;;10.37;65.85
50282;BME280;36176;51.506;10.272;2024-02-26T14:57:31;98311.22;;;10.29;66.75
50282;BME280;36176;51.506;10.272;2024-02-26T14:59:58;98303.94;;;10.33;67.22
50282;BME280;36176;51.506;10.272;2024-02-26T15:02:28;98303.63;;;10.37;67.50
50282;BME280;36176;51.506;10.272;2024-02-26T15:04:55;98303.22;;;10.43;67.30
50282;BME280;36176;51.506;10.272;2024-02-26T15:07:22;98308.63;;;10.42;66.77
50282;BME280;36176;51.506;10.272;2024-02-26T15:09:49;98312.63;;;10.35;66.24
50282;BME280;36176;51.506;10.272;2024-02-26T15:12:16;98313.00;;;10.29;66.41
50282;BME280;36176;51.506;10.272;2024-02-26T15:14:43;98318.56;;;10.24;66.46
50282;BME280;36176;51.506;10.272;2024-02-26T15:17:11;98311.59;;;10.23;67.21
50282;BME280;36176;51.506;10.272;2024-02-26T15:19:38;98324.81;;;10.23;66.68
50282;BME280;36176;51.506;10.272;2024-02-26T15:22:05;98324.81;;;10.23;67.73
50282;BME280;36176;51.506;10.272;2024-02-26T15:24:32;98325.41;;;10.28;67.42
50282;BME280;36176;51.506;10.272;2024-02-26T15:26:59;98319.91;;;10.31;67.00
50282;BME280;36176;51.506;10.272;2024-02-26T15:29:26;98331.53;;;10.29;67.85
50282;BME280;36176;51.506;10.272;2024-02-26T15:31:53;98328.41;;;10.22;68.09
50282;BME280;36176;51.506;10.272;2024-02-26T15:34:22;98335.78;;;10.17;68.28
50282;BME280;36176;51.506;10.272;2024-02-26T15:36:50;98336.47;;;10.06;67.59
50282;BME280;36176;51.506;10.272;2024-02-26T15:39:17;98341.38;;;9.98;68.75
50282;BME280;36176;51.506;10.272;2024-02-26T15:41:44;98347.09;;;9.92;68.52
50282;BME280;36176;51.506;10.272;2024-02-26T15:44:11;98348.28;;;9.86;68.67
50282;BME280;36176;51.506;10.272;2024-02-26T15:46:40;98357.94;;;9.87;68.43
50282;BME280;36176;51.506;10.272;2024-02-26T15:49:07;98357.75;;;9.90;68.81
50282;BME280;36176;51.506;10.272;2024-02-26T15:51:38;98355.94;;;9.91;66.47
50282;BME280;36176;51.506;10.272;2024-02-26T15:54:05;98360.88;;;9.83;66.87
50282;BME280;36176;51.506;10.272;2024-02-26T15:56:33;98367.78;;;9.85;67.06
50282;BME280;36176;51.506;10.272;2024-02-26T15:59:00;98373.25;;;9.82;66.89
50282;BME280;36176;51.506;10.272;2024-02-26T16:01:27;98380.53;;;9.78;66.97
50282;BME280;36176;51.506;10.272;2024-02-26T16:03:58;98374.75;;;9.72;67.50
50282;BME280;36176;51.506;10.272;2024-02-26T16:06:31;98384.13;;;9.63;67.18
50282;BME280;36176;51.506;10.272;2024-02-26T16:08:59;98382.03;;;9.54;67.18
50282;BME280;36176;51.506;10.272;2024-02-26T16:11:27;98384.63;;;9.40;67.12
50282;BME280;36176;51.506;10.272;2024-02-26T16:14:16;98390.47;;;9.30;68.40
50282;BME280;36176;51.506;10.272;2024-02-26T16:16:56;98399.97;;;9.19;67.92
50282;BME280;36176;51.506;10.272;2024-02-26T16:19:25;98410.03;;;9.12;67.52
50282;BME280;36176;51.506;10.272;2024-02-26T16:21:53;98402.47;;;9.06;67.82
50282;BME280;36176;51.506;10.272;2024-02-26T16:24:20;98408.94;;;9.00;68.42
50282;BME280;36176;51.506;10.272;2024-02-26T16:26:47;98415.44;;;8.94;68.71
50282;BME280;36176;51.506;10.272;2024-02-26T16:29:14;98410.53;;;8.88;68.36
50282;BME280;36176;51.506;10.272;2024-02-26T16:31:41;98410.88;;;8.82;69.14
50282;BME280;36176;51.506;10.272;2024-02-26T16:34:09;98420.00;;;8.77;69.16
50282;BME280;36176;51.506;10.272;2024-02-26T16:36:37;98420.41;;;8.69;69.45
50282;BME280;36176;51.506;10.272;2024-02-26T16:39:04;98427.75;;;8.64;69.35
50282;BME280;36176;51.506;10.272;2024-02-26T16:41:37;98424.50;;;8.59;70.17
50282;BME280;36176;51.506;10.272;2024-02-26T16:44:04;98438.91;;;8.53;70.84
50282;BME280;36176;51.506;10.272;2024-02-26T16:46:31;98433.91;;;8.48;70.85
50282;BME280;36176;51.506;10.272;2024-02-26T16:48:58;98441.03;;;8.46;71.69